createdAt,value
2023-01-23T00:00:31.835Z,83.50
2023-01-23T00:03:05.284Z,200.80
2023-01-23T00:05:38.306Z,115.60
2023-01-23T00:08:11.213Z,228.70
2023-01-23T00:10:43.776Z,210.30
2023-01-23T00:13:17.764Z,179.10
2023-01-23T00:15:52.489Z,218.50
2023-01-23T00:18:25.973Z,113.90
2023-01-23T00:20:59.210Z,122.40
2023-01-23T00:23:31.901Z,104.00
2023-01-23T00:26:08.363Z,78.60
2023-01-23T00:28:41.135Z,126.30
2023-01-23T00:31:18.033Z,173.60
2023-01-23T00:33:54.807Z,139.60
2023-01-23T00:36:31.947Z,130.40
2023-01-23T00:39:08.259Z,108.20
2023-01-23T00:41:41.243Z,186.10
2023-01-23T00:44:14.043Z,252.60
2023-01-23T00:46:46.796Z,81.10
2023-01-23T00:49:20.065Z,115.00
2023-01-23T00:51:53.398Z,122.60
2023-01-23T00:54:27.587Z,95.00
2023-01-23T00:57:03.003Z,176.10
2023-01-23T00:59:35.623Z,74.10
2023-01-23T01:02:09.782Z,158.70
2023-01-23T01:04:44.133Z,235.10
2023-01-23T01:07:17.003Z,145.50
2023-01-23T01:09:49.857Z,136.30
2023-01-23T01:12:22.629Z,127.70
2023-01-23T01:14:55.365Z,149.10
2023-01-23T01:17:28.196Z,174.30
2023-01-23T01:20:01.489Z,124.70
2023-01-23T01:22:35.594Z,82.80
2023-01-23T01:25:09.395Z,83.10
2023-01-23T01:28:01.942Z,144.90
2023-01-23T01:30:38.622Z,171.30
2023-01-23T01:33:11.614Z,169.70
2023-01-23T01:35:44.988Z,170.80
2023-01-23T01:38:18.071Z,187.40
2023-01-23T01:40:52.399Z,100.50
2023-01-23T01:43:27.064Z,152.80
2023-01-23T01:46:24.874Z,202.90
2023-01-23T01:49:09.255Z,107.60
2023-01-23T01:51:46.508Z,113.90
2023-01-23T01:54:25.300Z,109.40
2023-01-23T01:57:01.181Z,190.30
2023-01-23T01:59:38.866Z,212.50
2023-01-23T02:02:14.711Z,168.50
2023-01-23T02:04:50.348Z,89.50
2023-01-23T02:07:27.537Z,107.80
2023-01-23T02:10:00.147Z,138.20
2023-01-23T02:12:34.744Z,159.40
2023-01-23T02:15:10.375Z,149.50
2023-01-23T02:17:43.701Z,135.50
2023-01-23T02:20:22.515Z,137.30
2023-01-23T02:23:03.502Z,233.30
2023-01-23T02:25:44.000Z,204.50
2023-01-23T02:28:19.723Z,204.50
2023-01-23T02:30:52.544Z,212.80
2023-01-23T02:33:55.790Z,200.70
2023-01-23T02:36:31.068Z,90.10
2023-01-23T02:39:09.935Z,154.80
2023-01-23T02:41:46.448Z,111.80
2023-01-23T02:44:26.987Z,215.10
2023-01-23T02:47:05.939Z,185.80
2023-01-23T02:49:41.253Z,146.20
2023-01-23T02:52:16.529Z,122.80
2023-01-23T02:54:49.322Z,202.70
2023-01-23T02:57:21.911Z,190.20
2023-01-23T03:00:12.001Z,163.50
2023-01-23T03:02:44.883Z,184.30
2023-01-23T03:05:18.495Z,170.50
2023-01-23T03:07:51.351Z,215.20
2023-01-23T03:10:24.073Z,132.90
2023-01-23T03:12:58.666Z,269.00
2023-01-23T03:15:32.412Z,157.40
2023-01-23T03:18:05.240Z,72.30
2023-01-23T03:20:43.493Z,174.30
2023-01-23T03:23:18.674Z,105.10
2023-01-23T03:25:58.869Z,130.00
2023-01-23T03:28:52.063Z,160.90
2023-01-23T03:31:24.781Z,174.50
2023-01-23T03:33:59.260Z,109.30
2023-01-23T03:36:33.452Z,213.90
2023-01-23T03:39:24.315Z,176.00
2023-01-23T03:41:57.543Z,217.30
2023-01-23T03:44:34.231Z,227.80
2023-01-23T03:47:07.964Z,251.00
2023-01-23T03:49:41.976Z,196.30
2023-01-23T03:52:14.491Z,257.20
2023-01-23T03:54:48.601Z,193.20
2023-01-23T03:57:21.414Z,273.90
2023-01-23T03:59:54.504Z,280.70
2023-01-23T04:02:30.089Z,240.50
2023-01-23T04:05:02.743Z,315.40
2023-01-23T04:07:36.649Z,322.20
2023-01-23T04:10:17.002Z,316.70
2023-01-23T04:12:53.915Z,225.90
2023-01-23T04:15:28.563Z,341.50
2023-01-23T04:18:03.212Z,288.30
2023-01-23T04:23:07.720Z,242.60
2023-01-23T04:25:41.301Z,120.40
2023-01-23T04:28:17.905Z,207.20
2023-01-23T04:30:50.999Z,171.20
2023-01-23T04:33:33.421Z,172.80
2023-01-23T04:36:08.963Z,115.40
2023-01-23T04:38:41.906Z,217.00
2023-01-23T04:41:25.889Z,149.80
2023-01-23T04:44:19.469Z,218.80
2023-01-23T04:47:03.175Z,142.40
2023-01-23T04:49:35.633Z,208.90
2023-01-23T04:52:08.534Z,159.90
2023-01-23T04:54:43.744Z,86.60
2023-01-23T04:57:17.684Z,92.80
2023-01-23T04:59:51.753Z,114.60
2023-01-23T05:02:25.762Z,63.20
2023-01-23T05:04:59.189Z,105.00
2023-01-23T05:07:32.007Z,101.50
2023-01-23T05:10:18.513Z,105.70
2023-01-23T05:12:51.722Z,107.20
2023-01-23T05:15:26.361Z,123.90
2023-01-23T05:17:59.001Z,87.90
2023-01-23T05:20:32.193Z,131.70
2023-01-23T05:23:08.101Z,137.40
2023-01-23T05:25:49.134Z,222.90
2023-01-23T05:30:57.430Z,84.00
2023-01-23T05:33:45.554Z,89.90
2023-01-23T05:36:18.781Z,107.60
2023-01-23T05:38:51.786Z,91.90
2023-01-23T05:41:25.714Z,194.20
2023-01-23T05:44:21.847Z,121.40
2023-01-23T05:46:59.173Z,134.40
2023-01-23T05:49:31.853Z,100.70
2023-01-23T05:52:04.819Z,159.60
2023-01-23T05:54:37.983Z,68.90
2023-01-23T05:57:10.607Z,155.50
2023-01-23T06:00:20.563Z,179.40
2023-01-23T06:03:13.176Z,201.50
2023-01-23T06:05:55.264Z,172.10
2023-01-23T06:08:28.204Z,250.50
2023-01-23T06:11:02.514Z,197.40
2023-01-23T06:13:35.506Z,211.30
2023-01-23T06:16:10.864Z,136.90
2023-01-23T06:18:44.035Z,131.80
2023-01-23T06:21:18.646Z,228.30
2023-01-23T06:23:51.415Z,209.30
2023-01-23T06:26:24.054Z,112.50
2023-01-23T06:28:56.513Z,274.50
2023-01-23T06:31:30.885Z,140.20
2023-01-23T06:34:04.790Z,164.50
2023-01-23T06:36:41.983Z,186.20
2023-01-23T06:39:16.933Z,157.10
2023-01-23T06:41:49.715Z,109.40
2023-01-23T06:44:26.063Z,135.00
2023-01-23T06:46:59.430Z,254.80
2023-01-23T06:49:32.340Z,190.00
2023-01-23T06:52:04.905Z,151.00
2023-01-23T06:54:37.616Z,284.30
2023-01-23T06:57:13.392Z,162.50
2023-01-23T06:59:46.145Z,226.50
2023-01-23T07:04:56.443Z,100.70
2023-01-23T07:07:29.594Z,103.20
2023-01-23T07:10:02.311Z,83.80
2023-01-23T07:12:34.974Z,117.80
2023-01-23T07:15:09.163Z,183.30
2023-01-23T07:17:44.391Z,82.80
2023-01-23T07:20:17.705Z,84.60
2023-01-23T07:22:55.424Z,149.20
2023-01-23T07:25:29.450Z,131.50
2023-01-23T07:28:02.108Z,157.40
2023-01-23T07:30:35.154Z,105.00
2023-01-23T07:33:08.135Z,158.70
2023-01-23T07:35:41.855Z,115.70
2023-01-23T07:40:45.823Z,108.20
2023-01-23T07:43:18.803Z,164.00
2023-01-23T07:45:51.857Z,145.00
2023-01-23T07:48:24.444Z,168.00
2023-01-23T07:50:57.210Z,183.50
2023-01-23T07:53:30.154Z,160.80
2023-01-23T07:56:05.933Z,191.00
2023-01-23T07:58:38.463Z,126.00
2023-01-23T08:01:14.999Z,170.40
2023-01-23T08:03:47.584Z,102.70
2023-01-23T08:06:21.273Z,85.90
2023-01-23T08:08:54.166Z,172.40
2023-01-23T08:11:28.263Z,73.50
2023-01-23T08:14:00.928Z,117.30
2023-01-23T08:16:33.831Z,84.60
2023-01-23T08:19:10.218Z,92.40
2023-01-23T08:21:42.792Z,101.90
2023-01-23T08:24:18.286Z,120.10
2023-01-23T08:26:51.001Z,77.00
2023-01-23T08:29:23.529Z,99.20
2023-01-23T08:31:56.073Z,168.40
2023-01-23T08:34:28.964Z,89.20
2023-01-23T08:37:01.577Z,150.90
2023-01-23T08:39:35.171Z,131.40
2023-01-23T08:42:07.993Z,73.90
2023-01-23T08:44:40.673Z,73.10
2023-01-23T08:47:13.126Z,62.50
2023-01-23T08:49:46.043Z,113.70
2023-01-23T08:52:18.953Z,125.00
2023-01-23T08:54:51.425Z,132.40
2023-01-23T08:57:24.067Z,132.10
2023-01-23T08:59:56.648Z,61.20
2023-01-23T09:02:30.160Z,56.10
2023-01-23T09:05:02.883Z,90.60
2023-01-23T09:07:37.140Z,107.40
2023-01-23T09:10:13.235Z,98.40
2023-01-23T09:12:45.914Z,79.50
2023-01-23T09:15:19.019Z,118.40
2023-01-23T09:17:51.794Z,95.70
2023-01-23T09:20:26.209Z,72.40
2023-01-23T09:22:59.233Z,181.70
2023-01-23T09:25:32.715Z,146.70
2023-01-23T09:28:05.418Z,103.80
2023-01-23T09:30:38.403Z,57.00
2023-01-23T09:33:11.264Z,77.10
2023-01-23T09:35:45.844Z,91.60
2023-01-23T09:38:18.556Z,69.50
2023-01-23T09:40:54.606Z,56.00
2023-01-23T09:43:34.876Z,58.20
2023-01-23T09:46:16.539Z,44.40
2023-01-23T09:48:52.492Z,103.10
2023-01-23T09:51:31.234Z,50.60
2023-01-23T09:54:13.385Z,43.90
2023-01-23T09:56:50.714Z,29.50
2023-01-23T09:59:35.319Z,35.10
2023-01-23T10:02:20.565Z,44.50
2023-01-23T10:04:54.752Z,40.70
2023-01-23T10:07:56.051Z,33.20
2023-01-23T10:10:59.253Z,42.70
2023-01-23T10:13:58.168Z,46.70
2023-01-23T10:16:51.601Z,30.80
2023-01-23T10:19:42.743Z,30.00
2023-01-23T10:22:33.694Z,28.80
2023-01-23T10:25:13.494Z,27.10
2023-01-23T10:27:48.559Z,33.80
2023-01-23T10:30:29.175Z,40.00
2023-01-23T10:33:03.604Z,34.70
2023-01-23T10:35:42.767Z,26.90
2023-01-23T10:38:27.808Z,52.50
2023-01-23T10:41:21.809Z,57.80
2023-01-23T10:43:57.404Z,27.90
2023-01-23T10:46:36.015Z,38.50
2023-01-23T10:49:08.567Z,30.90
2023-01-23T10:51:51.098Z,29.70
2023-01-23T10:54:34.012Z,27.50
2023-01-23T10:57:27.384Z,27.90
2023-01-23T11:00:04.731Z,19.40
2023-01-23T11:02:39.536Z,31.90
2023-01-23T11:05:51.594Z,28.30
2023-01-23T11:08:36.658Z,31.00
2023-01-23T11:14:09.632Z,24.00
2023-01-23T11:16:42.611Z,21.10
2023-01-23T11:19:21.548Z,22.70
2023-01-23T11:21:59.451Z,21.00
2023-01-23T11:24:41.374Z,22.80
2023-01-23T11:27:24.824Z,24.30
2023-01-23T11:30:27.724Z,20.80
2023-01-23T11:33:06.375Z,27.40
2023-01-23T11:36:03.233Z,24.90
2023-01-23T11:38:47.998Z,39.20
2023-01-23T11:41:29.026Z,65.40
2023-01-23T11:44:03.825Z,79.80
2023-01-23T11:46:49.414Z,36.30
2023-01-23T11:49:43.762Z,25.40
2023-01-23T11:52:29.803Z,26.80
2023-01-23T11:55:25.034Z,36.50
2023-01-23T11:58:10.024Z,43.00
2023-01-23T12:00:47.084Z,40.60
2023-01-23T12:03:56.927Z,34.70
2023-01-23T12:06:50.273Z,31.60
2023-01-23T12:09:28.805Z,31.10
2023-01-23T12:12:12.744Z,34.40
2023-01-23T12:14:56.972Z,40.90
2023-01-23T12:17:39.563Z,48.90
2023-01-23T12:20:29.816Z,62.40
2023-01-23T12:23:17.204Z,46.80
2023-01-23T12:26:00.279Z,61.20
2023-01-23T12:28:56.594Z,61.30
2023-01-23T12:31:41.941Z,87.60
2023-01-23T12:34:29.473Z,79.00
2023-01-23T12:37:30.784Z,93.70
2023-01-23T12:40:12.765Z,45.80
2023-01-23T12:42:51.868Z,71.90
2023-01-23T12:45:27.984Z,65.90
2023-01-23T12:48:10.212Z,48.00
2023-01-23T12:50:48.870Z,43.20
2023-01-23T12:53:24.724Z,41.20
2023-01-23T12:56:05.239Z,36.70
2023-01-23T12:58:42.210Z,34.90
2023-01-23T13:01:35.827Z,38.50
2023-01-23T13:04:21.698Z,34.10
2023-01-23T13:07:15.574Z,33.50
2023-01-23T13:10:05.547Z,41.20
2023-01-23T13:12:39.014Z,37.30
2023-01-23T13:15:40.731Z,34.30
2023-01-23T13:18:28.534Z,38.80
2023-01-23T13:21:22.817Z,53.30
2023-01-23T13:24:35.159Z,57.30
2023-01-23T13:27:37.755Z,45.10
2023-01-23T13:30:45.914Z,37.00
2023-01-23T13:34:06.680Z,64.90
2023-01-23T13:36:48.360Z,83.80
2023-01-23T13:39:30.706Z,54.70
2023-01-23T13:42:37.784Z,62.80
2023-01-23T13:45:37.448Z,134.70
2023-01-23T14:20:53.579Z,95.10
2023-01-23T14:23:31.455Z,88.10
2023-01-23T14:26:06.116Z,124.90
2023-01-23T14:28:39.129Z,127.10
2023-01-23T14:31:29.653Z,110.90
2023-01-23T14:34:10.665Z,159.20
2023-01-23T14:36:48.076Z,169.50
2023-01-23T14:39:23.039Z,94.10
2023-01-23T14:46:05.869Z,172.50
2023-01-23T14:48:43.752Z,153.20
2023-01-23T14:51:22.935Z,160.80
2023-01-23T14:53:58.568Z,138.40
2023-01-23T14:56:34.842Z,160.00
2023-01-23T14:59:09.859Z,190.80
2023-01-23T15:01:42.756Z,231.90
2023-01-23T15:04:26.949Z,141.90
2023-01-23T15:07:02.162Z,144.90
2023-01-23T15:09:41.669Z,111.80
2023-01-23T15:12:20.549Z,127.00
2023-01-23T15:14:58.015Z,124.30
2023-01-23T15:17:32.263Z,110.90
2023-01-23T15:20:04.784Z,81.60
2023-01-23T15:22:38.533Z,115.20
2023-01-23T15:28:03.332Z,125.10
2023-01-23T15:30:43.629Z,135.10
2023-01-23T15:33:30.452Z,109.40
2023-01-23T15:36:24.929Z,115.00
2023-01-23T15:38:58.947Z,110.40
2023-01-23T15:44:20.310Z,125.20
2023-01-23T15:46:52.804Z,109.80
2023-01-23T15:49:26.582Z,125.60
2023-01-23T15:52:03.940Z,123.90
2023-01-23T15:54:40.942Z,84.50
2023-01-23T15:57:15.886Z,102.40
2023-01-23T15:59:49.041Z,128.80
2023-01-23T16:02:33.248Z,119.50
2023-01-23T16:05:08.493Z,116.10
2023-01-23T16:07:44.007Z,230.30
2023-01-23T16:10:22.512Z,93.60
2023-01-23T16:12:59.158Z,204.20
2023-01-23T16:15:33.620Z,231.40
2023-01-23T16:18:06.819Z,218.20
2023-01-23T16:20:41.736Z,129.70
2023-01-23T16:23:18.594Z,125.90
2023-01-23T16:25:52.742Z,140.30
2023-01-23T16:28:27.715Z,110.30
2023-01-23T16:31:01.195Z,121.80
2023-01-23T16:33:33.880Z,111.60
2023-01-23T16:36:14.361Z,168.80
2023-01-23T16:38:51.802Z,265.40
2023-01-23T16:41:24.764Z,126.00
2023-01-23T16:43:57.566Z,248.10
2023-01-23T16:46:30.351Z,163.10
2023-01-23T16:49:02.855Z,147.50
2023-01-23T16:51:37.572Z,205.30
2023-01-23T16:54:18.688Z,106.00
2023-01-23T16:56:53.126Z,126.20
2023-01-23T16:59:32.213Z,154.60
2023-01-23T17:02:19.300Z,220.80
2023-01-23T17:04:51.873Z,129.00
2023-01-23T17:21:21.286Z,200.40
2023-01-23T17:23:53.859Z,187.50
2023-01-23T17:26:29.075Z,156.50
2023-01-23T17:29:01.565Z,181.00
2023-01-23T17:31:36.953Z,171.10
2023-01-23T17:34:14.333Z,150.10
2023-01-23T17:36:46.855Z,195.10
2023-01-23T17:39:22.130Z,141.60
2023-01-23T17:41:54.976Z,121.20
2023-01-23T17:44:27.941Z,162.80
2023-01-23T17:47:02.544Z,127.50
2023-01-23T17:49:35.974Z,310.30
2023-01-23T17:52:08.943Z,210.10
2023-01-23T17:54:42.321Z,201.30
2023-01-23T17:57:16.761Z,163.00
2023-01-23T17:59:55.567Z,245.00
2023-01-23T18:02:33.365Z,159.30
2023-01-23T18:05:06.645Z,227.90
2023-01-23T18:07:52.173Z,171.00
2023-01-23T18:10:30.063Z,186.70
2023-01-23T18:13:18.269Z,202.50
2023-01-23T18:16:07.677Z,248.90
2023-01-23T18:18:43.279Z,193.70
2023-01-23T18:21:21.646Z,129.80
2023-01-23T18:23:55.406Z,244.40
2023-01-23T18:26:39.783Z,161.30
2023-01-23T18:29:25.626Z,126.80
2023-01-23T18:32:20.256Z,153.50
2023-01-23T18:35:00.700Z,218.70
2023-01-23T18:37:43.657Z,214.20
2023-01-23T18:40:25.965Z,170.40
2023-01-23T18:43:10.743Z,135.00
2023-01-23T18:45:44.447Z,196.70
2023-01-23T18:48:25.442Z,239.10
2023-01-23T18:51:16.281Z,176.40
2023-01-23T18:54:03.753Z,193.30
2023-01-23T18:59:25.313Z,109.80
2023-01-23T19:02:02.990Z,168.00
2023-01-23T19:04:38.911Z,142.50
2023-01-23T19:07:19.724Z,160.20
2023-01-23T19:09:53.220Z,159.80
2023-01-23T19:12:32.216Z,165.70
2023-01-23T19:15:16.743Z,190.00
2023-01-23T19:17:54.398Z,216.90
2023-01-23T19:20:30.764Z,150.50
2023-01-23T19:23:12.185Z,232.50
2023-01-23T19:25:48.377Z,195.00
2023-01-23T19:28:21.804Z,190.40
2023-01-23T19:30:56.632Z,198.50
2023-01-23T19:33:32.117Z,217.80
2023-01-23T19:36:08.093Z,235.20
2023-01-23T19:38:40.918Z,203.90
2023-01-23T19:41:21.151Z,276.90
2023-01-23T19:43:55.366Z,248.20
2023-01-23T19:46:33.109Z,229.50
2023-01-23T19:49:06.270Z,200.60
2023-01-23T19:51:42.433Z,209.60
2023-01-23T19:54:16.895Z,173.00
2023-01-23T19:56:51.653Z,194.20
2023-01-23T19:59:25.412Z,181.50
2023-01-23T20:01:58.177Z,163.10
2023-01-23T20:04:35.280Z,128.40
2023-01-23T20:07:08.734Z,148.80
2023-01-23T20:09:41.723Z,101.90
2023-01-23T20:12:18.106Z,107.20
2023-01-23T20:14:51.854Z,87.70
2023-01-23T20:17:24.438Z,118.80
2023-01-23T20:19:57.106Z,73.40
2023-01-23T20:22:34.472Z,82.70
2023-01-23T20:25:08.102Z,86.80
2023-01-23T20:27:42.360Z,81.90
2023-01-23T20:30:19.940Z,91.50
2023-01-23T20:32:53.854Z,109.10
2023-01-23T20:35:26.999Z,175.90
2023-01-23T20:37:59.781Z,70.50
2023-01-23T20:40:32.569Z,78.90
2023-01-23T20:43:05.513Z,91.20
2023-01-23T20:45:38.014Z,169.70
2023-01-23T20:48:11.213Z,155.50
2023-01-23T20:50:43.803Z,102.40
2023-01-23T20:53:34.417Z,227.50
2023-01-23T20:56:11.656Z,209.90
2023-01-23T20:59:05.934Z,203.40
2023-01-23T21:02:00.195Z,152.10
2023-01-23T21:04:35.508Z,327.90
2023-01-23T21:07:08.461Z,395.10
2023-01-23T21:09:43.321Z,238.00
2023-01-23T21:12:17.766Z,190.30
2023-01-23T21:14:50.305Z,255.10
2023-01-23T21:17:27.408Z,226.30
2023-01-23T21:19:59.914Z,217.30
2023-01-23T21:22:32.263Z,223.60
2023-01-23T21:25:04.754Z,196.40
2023-01-23T21:27:37.304Z,207.00
2023-01-23T21:30:12.353Z,240.20
2023-01-23T21:32:45.617Z,247.60
2023-01-23T21:35:19.228Z,273.20
2023-01-23T21:40:24.164Z,127.40
2023-01-23T21:42:56.681Z,108.30
2023-01-23T21:45:29.894Z,245.00
2023-01-23T21:48:03.765Z,216.90
2023-01-23T21:50:37.315Z,143.20
2023-01-23T21:55:44.184Z,95.00
2023-01-23T21:58:18.094Z,60.90
2023-01-23T22:01:14.821Z,74.90
2023-01-23T22:03:47.953Z,98.80
2023-01-23T22:06:20.402Z,60.50
2023-01-23T22:08:52.945Z,54.70
2023-01-23T22:11:25.354Z,97.60
2023-01-23T22:13:58.631Z,85.10
2023-01-23T22:16:47.491Z,69.50
2023-01-23T22:19:25.552Z,81.20
2023-01-23T22:21:58.723Z,80.00
2023-01-23T22:24:32.164Z,75.20
2023-01-23T22:27:05.438Z,72.90
2023-01-23T22:29:39.343Z,53.70
2023-01-23T22:32:12.161Z,63.30
2023-01-23T22:34:44.640Z,55.30
2023-01-23T22:37:17.706Z,49.40
2023-01-23T22:39:50.464Z,53.40
2023-01-23T22:42:23.926Z,52.40
2023-01-23T22:44:56.437Z,49.00
2023-01-23T22:47:31.939Z,58.20
2023-01-23T22:50:04.226Z,49.60
2023-01-23T22:52:36.763Z,49.50
2023-01-23T22:55:10.246Z,49.00
2023-01-23T22:57:42.737Z,49.90
2023-01-23T23:00:19.725Z,55.30
2023-01-23T23:02:52.315Z,55.00
2023-01-23T23:05:24.704Z,54.90
2023-01-23T23:07:59.231Z,49.80
2023-01-23T23:10:31.814Z,55.20
2023-01-23T23:13:07.031Z,43.60
2023-01-23T23:15:40.512Z,48.60
2023-01-23T23:18:13.018Z,49.00
2023-01-23T23:20:45.548Z,54.30
2023-01-23T23:23:23.074Z,63.40
2023-01-23T23:25:58.194Z,77.40
2023-01-23T23:28:31.361Z,71.40
2023-01-23T23:31:04.072Z,60.90
2023-01-23T23:33:37.320Z,64.70
2023-01-23T23:36:11.868Z,52.70
2023-01-23T23:38:44.335Z,70.60
2023-01-23T23:41:25.384Z,120.80
2023-01-23T23:44:01.205Z,96.10
2023-01-23T23:46:34.119Z,152.70
2023-01-23T23:49:08.297Z,128.20
2023-01-23T23:51:41.634Z,138.50
2023-01-23T23:54:14.191Z,195.00
2023-01-23T23:56:49.943Z,171.20
2023-01-23T23:59:22.453Z,158.00
